createdAt,value
2017-10-08T00:01:53.561Z,2.60
2017-10-08T00:04:20.601Z,2.33
2017-10-08T00:06:47.653Z,2.20
2017-10-08T00:09:13.960Z,2.33
2017-10-08T00:11:40.242Z,2.73
2017-10-08T00:14:06.563Z,2.40
2017-10-08T00:16:32.880Z,2.53
2017-10-08T00:18:59.929Z,3.00
2017-10-08T00:21:26.211Z,3.00
2017-10-08T00:23:52.525Z,3.20
2017-10-08T00:26:19.988Z,3.10
2017-10-08T00:28:46.278Z,3.00
2017-10-08T00:31:13.332Z,2.67
2017-10-08T00:33:40.372Z,3.20
2017-10-08T00:36:07.421Z,2.50
2017-10-08T00:38:34.475Z,3.60
2017-10-08T00:41:01.527Z,2.77
2017-10-08T00:43:28.572Z,3.77
2017-10-08T00:45:55.616Z,3.27
2017-10-08T00:48:22.659Z,3.27
2017-10-08T00:50:49.555Z,2.97
2017-10-08T00:53:15.901Z,3.30
2017-10-08T00:55:42.229Z,3.30
2017-10-08T00:58:08.552Z,1.67
2017-10-08T01:00:34.922Z,1.43
2017-10-08T01:03:01.238Z,0.93
2017-10-08T01:05:28.428Z,1.00
2017-10-08T01:07:54.763Z,1.10
2017-10-08T01:10:21.086Z,0.90
2017-10-08T01:12:47.389Z,1.27
2017-10-08T01:15:14.453Z,1.20
2017-10-08T01:17:40.779Z,0.90
2017-10-08T01:20:07.141Z,1.20
2017-10-08T01:22:33.469Z,1.00
2017-10-08T01:24:59.774Z,0.87
2017-10-08T01:27:26.126Z,1.00
2017-10-08T01:29:52.449Z,1.37
2017-10-08T01:32:18.783Z,1.40
2017-10-08T01:34:45.974Z,1.50
2017-10-08T01:37:12.303Z,1.97
2017-10-08T01:39:38.605Z,1.60
2017-10-08T01:42:04.931Z,2.07
2017-10-08T01:44:31.237Z,1.50
2017-10-08T01:46:57.549Z,1.40
2017-10-08T01:49:24.591Z,1.10
2017-10-08T01:51:51.659Z,1.00
2017-10-08T01:54:17.954Z,1.03
2017-10-08T01:56:44.281Z,1.00
2017-10-08T01:59:10.603Z,1.10
2017-10-08T02:01:36.913Z,0.90
2017-10-08T02:04:03.222Z,1.20
2017-10-08T02:06:29.519Z,1.00
2017-10-08T02:08:56.560Z,1.00
2017-10-08T02:11:22.851Z,1.33
2017-10-08T02:13:49.178Z,1.20
2017-10-08T02:16:15.481Z,1.13
2017-10-08T02:18:41.777Z,1.70
2017-10-08T02:21:08.067Z,1.87
2017-10-08T02:23:34.354Z,1.87
2017-10-08T02:26:01.376Z,2.00
2017-10-08T02:28:27.670Z,0.80
2017-10-08T02:30:53.942Z,1.00
2017-10-08T02:33:20.238Z,1.13
2017-10-08T02:35:46.526Z,0.90
2017-10-08T02:38:13.559Z,1.20
2017-10-08T02:40:39.842Z,1.10
2017-10-08T02:43:06.143Z,1.30
2017-10-08T02:45:32.430Z,1.20
2017-10-08T02:47:58.713Z,1.50
2017-10-08T02:50:25.011Z,1.10
2017-10-08T02:52:52.037Z,1.30
2017-10-08T02:55:18.317Z,1.10
2017-10-08T02:57:44.597Z,1.33
2017-10-08T03:00:10.876Z,1.00
2017-10-08T03:02:37.177Z,0.90
2017-10-08T03:05:03.481Z,1.20
2017-10-08T03:07:29.772Z,1.23
2017-10-08T03:09:56.071Z,1.20
2017-10-08T03:12:23.100Z,1.07
2017-10-08T03:14:50.219Z,1.90
2017-10-08T03:17:16.499Z,2.80
2017-10-08T03:19:42.797Z,3.17
2017-10-08T03:22:09.116Z,2.97
2017-10-08T03:24:35.428Z,3.13
2017-10-08T03:27:02.033Z,1.70
2017-10-08T03:29:28.313Z,1.77
2017-10-08T03:31:54.601Z,1.10
2017-10-08T03:34:20.865Z,0.97
2017-10-08T03:36:47.162Z,1.40
2017-10-08T03:39:13.452Z,0.93
2017-10-08T03:41:39.744Z,0.90
2017-10-08T03:44:06.014Z,1.00
2017-10-08T03:46:33.049Z,0.90
2017-10-08T03:48:59.335Z,1.20
2017-10-08T03:51:25.626Z,1.00
2017-10-08T03:53:52.659Z,1.10
2017-10-08T03:56:19.694Z,0.90
2017-10-08T03:58:45.988Z,1.00
2017-10-08T04:01:12.274Z,0.90
2017-10-08T04:03:39.313Z,1.10
2017-10-08T04:06:05.613Z,1.40
2017-10-08T04:08:32.158Z,1.00
2017-10-08T04:10:58.484Z,1.27
2017-10-08T04:13:24.797Z,1.50
2017-10-08T04:15:51.105Z,1.30
2017-10-08T04:18:17.413Z,1.40
2017-10-08T04:20:44.452Z,1.40
2017-10-08T04:23:11.491Z,1.20
2017-10-08T04:25:37.773Z,1.43
2017-10-08T04:28:04.068Z,1.20
2017-10-08T04:30:31.091Z,1.23
2017-10-08T04:32:57.391Z,1.40
2017-10-08T04:35:23.677Z,1.40
2017-10-08T04:37:50.728Z,1.63
2017-10-08T04:40:18.372Z,1.27
2017-10-08T04:42:45.413Z,1.20
2017-10-08T04:45:11.694Z,1.40
2017-10-08T04:47:38.009Z,1.43
2017-10-08T04:50:04.284Z,1.00
2017-10-08T04:52:30.590Z,1.10
2017-10-08T04:54:56.883Z,1.10
2017-10-08T04:57:23.179Z,1.07
2017-10-08T04:59:49.473Z,1.33
2017-10-08T05:02:16.561Z,1.13
2017-10-08T05:04:42.893Z,1.27
2017-10-08T05:07:09.190Z,1.40
2017-10-08T05:09:35.498Z,1.50
2017-10-08T05:12:01.786Z,1.63
2017-10-08T05:14:28.845Z,1.53
2017-10-08T05:16:55.138Z,1.50
2017-10-08T05:19:21.484Z,1.87
2017-10-08T05:21:47.765Z,1.10
2017-10-08T05:24:14.083Z,1.57
2017-10-08T05:26:40.368Z,1.47
2017-10-08T05:29:06.661Z,1.30
2017-10-08T05:31:32.949Z,1.30
2017-10-08T05:34:00.024Z,1.30
2017-10-08T05:36:26.301Z,1.40
2017-10-08T05:38:53.542Z,1.20
2017-10-08T05:41:19.844Z,1.20
2017-10-08T05:43:46.134Z,1.80
2017-10-08T05:46:12.436Z,1.50
2017-10-08T05:48:38.773Z,1.43
2017-10-08T05:51:05.142Z,1.30
2017-10-08T05:53:31.446Z,1.53
2017-10-08T05:55:58.536Z,1.37
2017-10-08T05:58:24.863Z,1.37
2017-10-08T06:00:51.220Z,1.50
2017-10-08T06:03:17.532Z,1.23
2017-10-08T06:05:43.821Z,1.20
2017-10-08T06:08:10.929Z,1.40
2017-10-08T06:10:37.241Z,1.83
2017-10-08T06:13:03.540Z,1.40
2017-10-08T06:15:30.626Z,1.33
2017-10-08T06:17:56.916Z,1.70
2017-10-08T06:20:23.958Z,1.50
2017-10-08T06:22:51.010Z,1.80
2017-10-08T06:25:18.078Z,1.80
2017-10-08T06:27:44.368Z,1.77
2017-10-08T06:30:11.447Z,1.70
2017-10-08T06:32:37.801Z,1.70
2017-10-08T06:35:04.153Z,1.60
2017-10-08T06:37:30.466Z,1.70
2017-10-08T06:39:56.780Z,1.87
2017-10-08T06:42:24.156Z,1.90
2017-10-08T06:44:50.464Z,2.37
2017-10-08T06:47:16.772Z,3.20
2017-10-08T06:49:43.839Z,1.80
2017-10-08T06:52:10.166Z,1.60
2017-10-08T06:54:36.458Z,1.73
2017-10-08T06:57:02.782Z,1.60
2017-10-08T06:59:29.082Z,1.50
2017-10-08T07:01:55.408Z,1.70
2017-10-08T07:04:21.771Z,1.50
2017-10-08T07:06:48.869Z,3.10
2017-10-08T07:09:15.187Z,1.50
2017-10-08T07:11:42.251Z,1.47
2017-10-08T07:14:08.578Z,1.70
2017-10-08T07:16:34.901Z,1.63
2017-10-08T07:19:01.378Z,1.70
2017-10-08T07:21:28.465Z,1.53
2017-10-08T07:23:54.809Z,1.90
2017-10-08T07:26:21.141Z,1.60
2017-10-08T07:28:47.467Z,2.00
2017-10-08T07:31:13.791Z,1.90
2017-10-08T07:33:40.842Z,1.70
2017-10-08T07:36:07.903Z,1.23
2017-10-08T07:38:34.231Z,1.60
2017-10-08T07:41:00.541Z,1.60
2017-10-08T07:43:27.584Z,1.60
2017-10-08T07:45:54.870Z,1.67
2017-10-08T07:48:21.221Z,1.70
2017-10-08T07:50:47.533Z,1.83
2017-10-08T07:53:13.967Z,1.60
2017-10-08T07:55:40.300Z,2.47
2017-10-08T07:58:06.630Z,2.10
2017-10-08T08:00:32.941Z,1.80
2017-10-08T08:02:59.236Z,2.10
2017-10-08T08:05:25.552Z,2.00
2017-10-08T08:07:51.867Z,1.70
2017-10-08T08:10:18.974Z,1.73
2017-10-08T08:12:45.269Z,2.03
2017-10-08T08:15:11.592Z,1.93
2017-10-08T08:17:37.910Z,1.93
2017-10-08T08:20:04.237Z,1.63
2017-10-08T08:22:30.536Z,1.70
2017-10-08T08:24:56.858Z,1.73
2017-10-08T08:27:23.157Z,2.27
2017-10-08T08:29:49.477Z,1.60
2017-10-08T08:32:16.540Z,1.50
2017-10-08T08:34:43.589Z,1.80
2017-10-08T08:37:09.900Z,1.53
2017-10-08T08:39:36.208Z,1.83
2017-10-08T08:42:02.520Z,7.07
2017-10-08T08:44:28.817Z,2.00
2017-10-08T08:46:55.866Z,1.60
2017-10-08T08:49:22.173Z,1.53
2017-10-08T08:51:48.503Z,1.50
2017-10-08T08:54:14.828Z,1.50
2017-10-08T08:56:41.131Z,1.40
2017-10-08T08:59:07.535Z,1.80
2017-10-08T09:01:33.870Z,1.17
2017-10-08T09:04:00.189Z,1.20
2017-10-08T09:06:26.569Z,1.10
2017-10-08T09:08:52.912Z,1.53
2017-10-08T09:11:19.246Z,1.63
2017-10-08T09:13:45.550Z,1.50
2017-10-08T09:16:11.917Z,1.40
2017-10-08T09:18:38.250Z,1.40
2017-10-08T09:21:05.480Z,1.60
2017-10-08T09:23:32.614Z,1.50
2017-10-08T09:25:58.940Z,1.20
2017-10-08T09:28:25.272Z,1.50
2017-10-08T09:30:51.588Z,1.40
2017-10-08T09:33:17.924Z,1.03
2017-10-08T09:35:44.232Z,1.90
2017-10-08T09:38:10.546Z,1.40
2017-10-08T09:40:36.884Z,1.67
2017-10-08T09:43:03.246Z,1.70
2017-10-08T09:45:29.570Z,1.53
2017-10-08T09:47:55.902Z,2.20
2017-10-08T09:50:22.193Z,1.43
2017-10-08T09:52:49.273Z,1.53
2017-10-08T09:55:15.571Z,1.70
2017-10-08T09:57:41.929Z,1.33
2017-10-08T10:00:08.233Z,1.40
2017-10-08T10:02:34.558Z,1.40
2017-10-08T10:05:01.666Z,1.60
2017-10-08T10:07:27.963Z,1.47
2017-10-08T10:09:54.271Z,1.17
2017-10-08T10:12:21.479Z,1.07
2017-10-08T10:14:47.833Z,1.07
2017-10-08T10:17:14.194Z,1.70
2017-10-08T10:19:40.523Z,1.30
2017-10-08T10:22:06.814Z,1.00
2017-10-08T10:24:33.135Z,1.43
2017-10-08T10:26:59.449Z,2.00
2017-10-08T10:29:25.859Z,1.10
2017-10-08T10:31:52.159Z,1.27
2017-10-08T10:34:19.196Z,1.50
2017-10-08T10:36:45.513Z,1.90
2017-10-08T10:39:12.365Z,1.50
2017-10-08T10:41:38.715Z,1.40
2017-10-08T10:44:05.765Z,0.90
2017-10-08T10:46:32.823Z,1.20
2017-10-08T10:48:59.337Z,0.90
2017-10-08T10:51:26.366Z,1.53
2017-10-08T10:53:52.711Z,1.37
2017-10-08T10:56:19.930Z,1.20
2017-10-08T10:58:46.262Z,1.30
2017-10-08T11:01:12.573Z,1.10
2017-10-08T11:03:38.859Z,1.43
2017-10-08T11:06:06.933Z,1.10
2017-10-08T11:08:33.247Z,1.20
2017-10-08T11:10:59.613Z,1.23
2017-10-08T11:13:25.998Z,1.33
2017-10-08T11:15:52.361Z,1.43
2017-10-08T11:18:19.433Z,1.10
2017-10-08T11:20:45.819Z,1.27
2017-10-08T11:23:12.881Z,1.13
2017-10-08T11:25:39.240Z,0.90
2017-10-08T11:28:05.545Z,1.20
2017-10-08T11:30:31.901Z,0.83
2017-10-08T11:32:58.216Z,1.00
2017-10-08T11:35:24.537Z,1.00
2017-10-08T11:37:51.598Z,1.00
2017-10-08T11:40:17.936Z,0.90
2017-10-08T11:42:44.340Z,1.10
2017-10-08T11:45:11.434Z,0.90
2017-10-08T11:47:37.738Z,0.80
2017-10-08T11:50:04.052Z,0.80
2017-10-08T11:52:31.106Z,0.80
2017-10-08T11:54:58.145Z,0.70
2017-10-08T11:57:25.185Z,0.83
2017-10-08T11:59:52.242Z,1.00
2017-10-08T12:02:18.580Z,0.60
2017-10-08T12:04:44.900Z,0.63
2017-10-08T12:07:11.222Z,1.07
2017-10-08T12:09:38.275Z,1.00
2017-10-08T12:12:05.343Z,0.83
2017-10-08T12:14:31.641Z,0.60
2017-10-08T12:16:58.675Z,0.70
2017-10-08T12:19:24.970Z,0.73
2017-10-08T12:21:51.237Z,0.60
2017-10-08T12:24:17.566Z,0.97
2017-10-08T12:26:44.123Z,0.60
2017-10-08T12:29:11.191Z,0.87
2017-10-08T12:31:37.522Z,0.80
2017-10-08T12:34:03.834Z,1.00
2017-10-08T12:36:30.854Z,1.03
2017-10-08T12:38:57.187Z,0.80
2017-10-08T12:41:23.486Z,0.70
2017-10-08T12:43:49.854Z,0.90
2017-10-08T12:46:16.882Z,1.33
2017-10-08T12:48:43.290Z,1.00
2017-10-08T12:51:09.620Z,1.10
2017-10-08T12:53:35.947Z,0.87
2017-10-08T12:56:02.843Z,1.00
2017-10-08T12:58:29.926Z,1.23
2017-10-08T13:00:56.255Z,0.70
2017-10-08T13:03:22.568Z,0.70
2017-10-08T13:05:48.905Z,0.60
2017-10-08T13:08:15.217Z,0.70
2017-10-08T13:10:42.261Z,0.90
2017-10-08T13:13:08.581Z,0.80
2017-10-08T13:15:34.891Z,0.80
2017-10-08T13:18:01.190Z,0.80
2017-10-08T13:20:27.520Z,1.60
2017-10-08T13:22:53.831Z,1.60
2017-10-08T13:25:20.137Z,1.00
2017-10-08T13:27:47.174Z,0.73
2017-10-08T13:30:13.473Z,0.80
2017-10-08T13:32:39.755Z,1.40
2017-10-08T13:35:07.714Z,0.80
2017-10-08T13:37:34.763Z,0.73
2017-10-08T13:40:01.836Z,0.93
2017-10-08T13:42:28.875Z,0.97
2017-10-08T13:44:55.182Z,1.13
2017-10-08T13:47:21.498Z,1.03
2017-10-08T13:49:49.270Z,0.80
2017-10-08T13:52:16.338Z,0.90
2017-10-08T13:54:42.696Z,1.00
2017-10-08T13:57:09.017Z,1.00
2017-10-08T13:59:35.332Z,0.60
2017-10-08T14:02:02.477Z,0.80
2017-10-08T14:04:29.526Z,0.70
2017-10-08T14:06:56.568Z,0.70
2017-10-08T14:09:23.620Z,0.60
2017-10-08T14:11:50.714Z,0.50
2017-10-08T14:14:17.022Z,0.87
2017-10-08T14:16:43.321Z,0.73
2017-10-08T14:19:11.327Z,0.70
2017-10-08T14:21:37.619Z,0.60
2017-10-08T14:24:04.665Z,0.93
2017-10-08T14:26:31.701Z,0.70
2017-10-08T14:28:57.995Z,0.90
2017-10-08T14:31:24.291Z,0.77
2017-10-08T14:33:51.402Z,0.70
2017-10-08T14:36:17.707Z,0.80
2017-10-08T14:38:44.006Z,1.07
2017-10-08T14:41:10.280Z,0.87
2017-10-08T14:43:36.598Z,1.20
2017-10-08T14:46:02.907Z,0.93
2017-10-08T14:48:29.207Z,1.00
2017-10-08T14:50:56.252Z,0.90
2017-10-08T14:53:22.638Z,0.70
2017-10-08T14:55:49.962Z,0.90
2017-10-08T14:58:16.265Z,0.97
2017-10-08T15:00:44.221Z,0.80
2017-10-08T15:03:10.571Z,1.00
2017-10-08T15:05:36.930Z,0.73
2017-10-08T15:08:03.269Z,1.30
2017-10-08T15:10:29.611Z,0.80
2017-10-08T15:12:55.981Z,1.00
2017-10-08T15:15:24.582Z,0.90
2017-10-08T15:17:51.640Z,0.70
2017-10-08T15:20:17.985Z,0.77
2017-10-08T15:22:44.273Z,1.07
2017-10-08T15:25:11.334Z,0.83
2017-10-08T15:27:38.414Z,0.70
2017-10-08T15:30:04.746Z,1.00
2017-10-08T15:32:31.040Z,1.20
2017-10-08T15:34:58.116Z,1.10
2017-10-08T15:37:24.400Z,0.90
2017-10-08T15:39:51.459Z,0.87
2017-10-08T15:42:18.507Z,1.00
2017-10-08T15:44:45.543Z,0.87
2017-10-08T15:47:11.897Z,0.80
2017-10-08T15:49:38.935Z,0.83
2017-10-08T15:52:05.998Z,1.00
2017-10-08T15:54:33.288Z,0.70
2017-10-08T15:56:59.607Z,1.27
2017-10-08T15:59:26.707Z,0.80
2017-10-08T16:01:53.791Z,0.90
2017-10-08T16:04:20.087Z,0.83
2017-10-08T16:06:47.138Z,1.20
2017-10-08T16:09:14.172Z,0.93
2017-10-08T16:11:41.244Z,1.00
2017-10-08T16:14:08.272Z,1.00
2017-10-08T16:16:35.311Z,1.43
2017-10-08T16:19:02.358Z,0.97
2017-10-08T16:21:28.683Z,1.13
2017-10-08T16:23:54.992Z,1.30
2017-10-08T16:26:22.282Z,1.70
2017-10-08T16:28:49.347Z,1.17
2017-10-08T16:31:15.669Z,0.97
2017-10-08T16:33:42.722Z,1.47
2017-10-08T16:36:09.758Z,1.33
2017-10-08T16:38:36.817Z,2.70
2017-10-08T16:41:03.859Z,2.27
2017-10-08T16:43:30.200Z,1.40
2017-10-08T16:45:56.524Z,1.30
2017-10-08T16:48:22.851Z,1.50
2017-10-08T16:50:49.894Z,1.90
2017-10-08T16:53:16.936Z,2.00
2017-10-08T16:55:43.993Z,2.30
2017-10-08T16:58:10.312Z,2.10
2017-10-08T17:00:37.367Z,3.47
2017-10-08T17:03:03.685Z,3.90
2017-10-08T17:05:30.746Z,2.80
2017-10-08T17:07:57.791Z,2.63
2017-10-08T17:10:24.122Z,3.00
2017-10-08T17:12:51.152Z,3.03
2017-10-08T17:15:17.449Z,3.47
2017-10-08T17:17:43.729Z,2.93
2017-10-08T17:20:10.772Z,3.00
2017-10-08T17:22:37.076Z,2.73
2017-10-08T17:25:03.379Z,3.20
2017-10-08T17:27:29.660Z,2.97
2017-10-08T17:29:56.715Z,6.83
2017-10-08T17:32:23.766Z,4.70
2017-10-08T17:34:50.109Z,4.80
2017-10-08T17:37:16.397Z,4.50
2017-10-08T17:39:42.709Z,3.87
2017-10-08T17:42:09.062Z,4.20
2017-10-08T17:44:36.106Z,3.83
2017-10-08T17:47:02.409Z,5.63
2017-10-08T17:49:28.681Z,6.50
2017-10-08T17:51:55.722Z,6.80
2017-10-08T17:54:22.763Z,6.23
2017-10-08T17:56:49.821Z,6.47
2017-10-08T17:59:16.140Z,6.97
2017-10-08T18:01:43.201Z,6.50
2017-10-08T18:04:09.523Z,6.40
2017-10-08T18:06:37.409Z,5.73
2017-10-08T18:09:04.432Z,5.40
2017-10-08T18:11:31.494Z,5.87
2017-10-08T18:13:57.900Z,9.03
2017-10-08T18:16:24.225Z,6.27
2017-10-08T18:18:50.537Z,5.77
2017-10-08T18:21:16.900Z,5.10
2017-10-08T18:23:43.193Z,4.73
2017-10-08T18:26:09.530Z,4.23
2017-10-08T18:28:35.853Z,4.50
2017-10-08T18:31:02.201Z,5.10
2017-10-08T18:33:28.525Z,4.40
2017-10-08T18:35:54.830Z,4.67
2017-10-08T18:38:21.333Z,4.50
2017-10-08T18:40:48.410Z,4.20
2017-10-08T18:43:14.714Z,3.67
2017-10-08T18:45:42.597Z,3.90
2017-10-08T18:48:08.885Z,3.67
2017-10-08T18:50:35.937Z,3.87
2017-10-08T18:53:02.986Z,3.90
2017-10-08T18:55:29.355Z,4.20
2017-10-08T18:57:55.700Z,5.03
2017-10-08T19:00:21.977Z,3.87
2017-10-08T19:02:49.196Z,3.80
2017-10-08T19:05:15.595Z,3.60
2017-10-08T19:07:41.898Z,3.90
2017-10-08T19:10:08.950Z,4.63
2017-10-08T19:12:35.987Z,4.10
2017-10-08T19:15:03.061Z,4.30
2017-10-08T19:17:29.338Z,3.73
2017-10-08T19:19:55.614Z,4.13
2017-10-08T19:22:21.898Z,3.90
2017-10-08T19:24:48.190Z,3.90
2017-10-08T19:27:14.480Z,3.90
2017-10-08T19:29:41.527Z,3.83
2017-10-08T19:32:08.565Z,4.20
2017-10-08T19:34:34.890Z,4.37
2017-10-08T19:37:01.166Z,4.43
2017-10-08T19:39:27.469Z,3.90
2017-10-08T19:41:54.502Z,3.57
2017-10-08T19:44:24.155Z,4.60
2017-10-08T19:46:52.177Z,4.10
2017-10-08T19:49:19.370Z,4.20
2017-10-08T19:51:45.669Z,4.03
2017-10-08T19:54:12.743Z,3.73
2017-10-08T19:56:39.055Z,4.20
2017-10-08T19:59:06.870Z,3.83
2017-10-08T20:01:33.162Z,3.73
2017-10-08T20:03:59.478Z,3.80
2017-10-08T20:06:26.551Z,4.13
2017-10-08T20:08:52.911Z,4.00
2017-10-08T20:11:20.204Z,3.70
2017-10-08T20:13:48.152Z,4.63
2017-10-08T20:16:14.490Z,4.33
2017-10-08T20:18:40.814Z,4.47
2017-10-08T20:21:07.372Z,4.63
2017-10-08T20:23:35.223Z,4.47
2017-10-08T20:26:02.350Z,4.30
2017-10-08T20:28:30.161Z,4.13
2017-10-08T20:30:57.354Z,3.87
2017-10-08T20:33:24.417Z,4.40
2017-10-08T20:35:50.711Z,4.30
2017-10-08T20:38:17.838Z,3.77
2017-10-08T20:40:45.086Z,3.10
2017-10-08T20:43:12.935Z,4.27
2017-10-08T20:45:39.300Z,3.93
2017-10-08T20:48:05.632Z,4.47
2017-10-08T20:50:31.966Z,4.07
2017-10-08T20:52:58.258Z,3.63
2017-10-08T20:55:25.322Z,4.10
2017-10-08T20:57:52.382Z,4.20
2017-10-08T21:00:18.683Z,3.10
2017-10-08T21:02:45.795Z,3.63
2017-10-08T21:05:12.848Z,3.60
2017-10-08T21:07:40.757Z,2.77
2017-10-08T21:10:07.822Z,2.70
2017-10-08T21:12:34.157Z,3.07
2017-10-08T21:15:00.466Z,3.27
2017-10-08T21:17:28.538Z,3.13
2017-10-08T21:19:55.712Z,3.97
2017-10-08T21:22:22.985Z,3.90
2017-10-08T21:24:49.279Z,3.40
2017-10-08T21:27:15.586Z,2.93
2017-10-08T21:29:41.882Z,3.77
2017-10-08T21:32:08.198Z,3.20
2017-10-08T21:34:35.543Z,3.03
2017-10-08T21:37:01.902Z,3.37
2017-10-08T21:39:29.065Z,3.30
2017-10-08T21:41:56.833Z,3.17
2017-10-08T21:44:25.647Z,3.10
2017-10-08T21:46:52.696Z,2.60
2017-10-08T21:49:20.357Z,2.77
2017-10-08T21:51:47.417Z,2.80
2017-10-08T21:54:15.377Z,3.07
2017-10-08T21:56:42.446Z,3.00
2017-10-08T21:59:08.810Z,2.53
2017-10-08T22:01:35.094Z,2.50
2017-10-08T22:04:02.251Z,2.80
2017-10-08T22:06:28.559Z,2.80
2017-10-08T22:08:57.106Z,3.20
2017-10-08T22:11:23.576Z,2.83
2017-10-08T22:13:49.906Z,2.33
2017-10-08T22:16:16.958Z,2.70
2017-10-08T22:18:43.352Z,2.57
2017-10-08T22:21:10.420Z,2.90
2017-10-08T22:23:37.778Z,2.87
2017-10-08T22:26:04.823Z,2.30
2017-10-08T22:28:32.150Z,3.00
2017-10-08T22:30:59.369Z,2.73
2017-10-08T22:33:25.715Z,2.70
2017-10-08T22:35:52.033Z,2.87
2017-10-08T22:38:18.369Z,2.80
2017-10-08T22:40:45.397Z,2.90
2017-10-08T22:43:11.682Z,2.83
2017-10-08T22:45:39.460Z,2.50
2017-10-08T22:48:06.489Z,2.57
2017-10-08T22:50:32.787Z,2.23
2017-10-08T22:52:59.162Z,3.10
2017-10-08T22:55:26.216Z,2.53
2017-10-08T22:57:53.241Z,2.73
2017-10-08T23:00:20.578Z,3.00
2017-10-08T23:02:46.901Z,2.50
2017-10-08T23:05:13.252Z,2.70
2017-10-08T23:07:40.304Z,3.00
2017-10-08T23:10:07.417Z,2.57
2017-10-08T23:12:33.763Z,2.33
2017-10-08T23:15:00.097Z,2.70
2017-10-08T23:17:26.472Z,2.90
2017-10-08T23:19:55.386Z,4.90
2017-10-08T23:22:22.902Z,2.70
2017-10-08T23:24:49.952Z,2.50
2017-10-08T23:27:17.015Z,3.00
2017-10-08T23:29:44.188Z,2.53
2017-10-08T23:32:11.274Z,2.23
2017-10-08T23:34:37.575Z,2.23
2017-10-08T23:37:03.876Z,2.00
2017-10-08T23:39:30.904Z,1.77
2017-10-08T23:41:57.936Z,1.90
2017-10-08T23:44:24.231Z,1.77
2017-10-08T23:46:50.564Z,1.90
2017-10-08T23:49:16.856Z,1.90
2017-10-08T23:51:43.187Z,2.10
2017-10-08T23:54:10.214Z,1.53
2017-10-08T23:56:36.494Z,1.93
2017-10-08T23:59:02.762Z,2.17
